sensor_id;sensor_type;location;lat;lon;timestamp;pressure;altitude;pressure_sealevel;temperature;humidity
64189;BME280;50493;50.970;10.082;2023-09-19T00:00:56;98511.59;;;19.62;53.85
64189;BME280;50493;50.970;10.082;2023-09-19T00:03:23;98508.00;;;19.63;54.23
64189;BME280;50493;50.970;10.082;2023-09-19T00:05:49;98503.44;;;19.15;57.13
64189;BME280;50493;50.970;10.082;2023-09-19T00:08:15;98508.56;;;19.55;55.20
64189;BME280;50493;50.970;10.082;2023-09-19T00:10:41;98505.16;;;19.16;55.35
64189;BME280;50493;50.970;10.082;2023-09-19T00:13:07;98514.84;;;19.28;56.25
64189;BME280;50493;50.970;10.082;2023-09-19T00:15:37;98520.50;;;19.11;55.57
64189;BME280;50493;50.970;10.082;2023-09-19T00:18:03;98517.81;;;19.49;55.21
64189;BME280;50493;50.970;10.082;2023-09-19T00:20:31;98514.41;;;19.47;55.09
64189;BME280;50493;50.970;10.082;2023-09-19T00:22:56;98523.97;;;19.24;54.69
64189;BME280;50493;50.970;10.082;2023-09-19T00:25:24;98537.31;;;19.48;54.11
64189;BME280;50493;50.970;10.082;2023-09-19T00:27:50;98530.53;;;19.44;55.51
64189;BME280;50493;50.970;10.082;2023-09-19T00:30:17;98530.91;;;19.64;55.87
64189;BME280;50493;50.970;10.082;2023-09-19T00:32:47;98536.38;;;19.36;55.65
64189;BME280;50493;50.970;10.082;2023-09-19T00:35:13;98533.94;;;19.33;54.34
64189;BME280;50493;50.970;10.082;2023-09-19T00:37:41;98533.28;;;19.30;55.47
64189;BME280;50493;50.970;10.082;2023-09-19T00:40:07;98538.91;;;19.51;55.09
64189;BME280;50493;50.970;10.082;2023-09-19T00:42:37;98544.34;;;19.24;54.15
64189;BME280;50493;50.970;10.082;2023-09-19T00:45:03;98542.63;;;19.23;54.33
64189;BME280;50493;50.970;10.082;2023-09-19T00:47:29;98547.53;;;19.29;54.02
64189;BME280;50493;50.970;10.082;2023-09-19T00:49:55;98543.31;;;19.63;54.42
64189;BME280;50493;50.970;10.082;2023-09-19T00:52:21;98542.88;;;19.19;54.42
64189;BME280;50493;50.970;10.082;2023-09-19T00:54:48;98553.25;;;19.23;54.06
64189;BME280;50493;50.970;10.082;2023-09-19T00:57:13;98555.16;;;19.08;55.57
64189;BME280;50493;50.970;10.082;2023-09-19T00:59:40;98559.91;;;19.28;55.79
64189;BME280;50493;50.970;10.082;2023-09-19T01:02:06;98551.84;;;19.43;55.18
64189;BME280;50493;50.970;10.082;2023-09-19T01:04:32;98560.25;;;19.24;55.72
64189;BME280;50493;50.970;10.082;2023-09-19T01:06:57;98559.91;;;19.41;54.18
64189;BME280;50493;50.970;10.082;2023-09-19T01:09:23;98568.72;;;19.29;55.95
64189;BME280;50493;50.970;10.082;2023-09-19T01:11:51;98564.41;;;19.02;54.42
64189;BME280;50493;50.970;10.082;2023-09-19T01:14:23;98568.19;;;19.24;54.83
64189;BME280;50493;50.970;10.082;2023-09-19T01:17:00;98570.38;;;19.30;53.90
64189;BME280;50493;50.970;10.082;2023-09-19T01:19:53;98566.59;;;19.34;55.90
64189;BME280;50493;50.970;10.082;2023-09-19T01:22:28;98575.81;;;19.15;54.06
64189;BME280;50493;50.970;10.082;2023-09-19T01:25:25;98569.16;;;19.35;56.42
64189;BME280;50493;50.970;10.082;2023-09-19T01:28:20;98568.28;;;19.35;56.04
64189;BME280;50493;50.970;10.082;2023-09-19T01:30:57;98574.03;;;19.03;54.61
64189;BME280;50493;50.970;10.082;2023-09-19T01:33:25;98570.13;;;19.09;56.51
64189;BME280;50493;50.970;10.082;2023-09-19T01:38:19;98572.56;;;18.99;57.00
64189;BME280;50493;50.970;10.082;2023-09-19T01:40:55;98578.38;;;19.04;56.66
64189;BME280;50493;50.970;10.082;2023-09-19T01:43:26;98586.44;;;18.90;54.85
64189;BME280;50493;50.970;10.082;2023-09-19T01:45:59;98596.16;;;18.76;54.70
64189;BME280;50493;50.970;10.082;2023-09-19T01:48:35;98595.00;;;18.40;57.36
64189;BME280;50493;50.970;10.082;2023-09-19T01:51:06;98598.81;;;18.76;58.33
64189;BME280;50493;50.970;10.082;2023-09-19T01:53:35;98601.56;;;18.75;55.07
64189;BME280;50493;50.970;10.082;2023-09-19T01:56:05;98605.16;;;18.86;57.08
64189;BME280;50493;50.970;10.082;2023-09-19T01:58:35;98611.13;;;18.77;54.46
64189;BME280;50493;50.970;10.082;2023-09-19T02:01:06;98613.97;;;18.47;55.44
64189;BME280;50493;50.970;10.082;2023-09-19T02:03:34;98610.28;;;18.90;56.10
64189;BME280;50493;50.970;10.082;2023-09-19T02:06:01;98616.28;;;18.79;54.84
64189;BME280;50493;50.970;10.082;2023-09-19T02:08:28;98618.94;;;18.92;56.91
64189;BME280;50493;50.970;10.082;2023-09-19T02:10:56;98617.66;;;18.84;54.22
64189;BME280;50493;50.970;10.082;2023-09-19T02:13:22;98616.63;;;18.87;56.15
64189;BME280;50493;50.970;10.082;2023-09-19T02:15:53;98627.09;;;18.48;56.67
64189;BME280;50493;50.970;10.082;2023-09-19T02:18:20;98626.34;;;18.06;56.33
64189;BME280;50493;50.970;10.082;2023-09-19T02:20:45;98624.44;;;18.76;54.20
64189;BME280;50493;50.970;10.082;2023-09-19T02:23:11;98627.34;;;18.18;57.55
64189;BME280;50493;50.970;10.082;2023-09-19T02:25:37;98630.97;;;18.02;56.15
64189;BME280;50493;50.970;10.082;2023-09-19T02:28:05;98633.56;;;18.17;55.65
64189;BME280;50493;50.970;10.082;2023-09-19T02:30:31;98635.22;;;18.05;56.15
64189;BME280;50493;50.970;10.082;2023-09-19T02:32:56;98630.72;;;18.20;55.89
64189;BME280;50493;50.970;10.082;2023-09-19T02:35:23;98630.09;;;18.16;55.46
64189;BME280;50493;50.970;10.082;2023-09-19T02:37:51;98630.91;;;18.04;55.53
64189;BME280;50493;50.970;10.082;2023-09-19T02:40:17;98633.38;;;18.20;55.44
64189;BME280;50493;50.970;10.082;2023-09-19T02:42:45;98627.28;;;18.05;55.74
64189;BME280;50493;50.970;10.082;2023-09-19T02:45:12;98632.88;;;18.00;58.67
64189;BME280;50493;50.970;10.082;2023-09-19T02:47:39;98644.91;;;17.63;57.13
64189;BME280;50493;50.970;10.082;2023-09-19T02:50:05;98637.72;;;17.94;55.91
64189;BME280;50493;50.970;10.082;2023-09-19T02:52:32;98642.41;;;18.30;55.02
64189;BME280;50493;50.970;10.082;2023-09-19T02:54:58;98643.66;;;17.97;55.58
64189;BME280;50493;50.970;10.082;2023-09-19T02:57:23;98658.28;;;18.30;55.20
64189;BME280;50493;50.970;10.082;2023-09-19T02:59:49;98663.78;;;17.85;55.85
64189;BME280;50493;50.970;10.082;2023-09-19T03:02:14;98663.19;;;17.66;56.32
64189;BME280;50493;50.970;10.082;2023-09-19T03:04:41;98656.31;;;17.92;55.41
64189;BME280;50493;50.970;10.082;2023-09-19T03:07:06;98667.84;;;18.18;55.13
64189;BME280;50493;50.970;10.082;2023-09-19T03:09:33;98664.06;;;18.23;54.14
64189;BME280;50493;50.970;10.082;2023-09-19T03:11:58;98664.66;;;18.13;54.74
64189;BME280;50493;50.970;10.082;2023-09-19T03:14:24;98669.94;;;18.13;54.68
64189;BME280;50493;50.970;10.082;2023-09-19T03:16:50;98680.28;;;18.03;55.38
64189;BME280;50493;50.970;10.082;2023-09-19T03:19:17;98671.44;;;18.17;54.81
64189;BME280;50493;50.970;10.082;2023-09-19T03:21:42;98675.91;;;18.17;53.35
64189;BME280;50493;50.970;10.082;2023-09-19T03:24:08;98678.84;;;18.12;54.47
64189;BME280;50493;50.970;10.082;2023-09-19T03:26:35;98683.16;;;18.13;53.77
64189;BME280;50493;50.970;10.082;2023-09-19T03:29:03;98680.44;;;17.73;55.12
64189;BME280;50493;50.970;10.082;2023-09-19T03:31:31;98682.41;;;17.69;54.61
64189;BME280;50493;50.970;10.082;2023-09-19T03:33:57;98675.25;;;17.72;54.71
64189;BME280;50493;50.970;10.082;2023-09-19T03:36:22;98675.47;;;17.52;55.03
64189;BME280;50493;50.970;10.082;2023-09-19T03:38:47;98686.63;;;17.43;55.88
64189;BME280;50493;50.970;10.082;2023-09-19T03:41:13;98683.22;;;17.41;55.49
64189;BME280;50493;50.970;10.082;2023-09-19T03:43:40;98694.19;;;17.35;55.97
64189;BME280;50493;50.970;10.082;2023-09-19T03:46:06;98679.47;;;17.60;55.00
64189;BME280;50493;50.970;10.082;2023-09-19T03:48:33;98684.94;;;17.71;54.48
64189;BME280;50493;50.970;10.082;2023-09-19T03:50:58;98678.78;;;17.85;53.71
64189;BME280;50493;50.970;10.082;2023-09-19T03:53:24;98676.91;;;17.73;53.37
64189;BME280;50493;50.970;10.082;2023-09-19T03:55:49;98676.59;;;17.92;53.35
64189;BME280;50493;50.970;10.082;2023-09-19T03:58:15;98682.66;;;17.79;51.62
64189;BME280;50493;50.970;10.082;2023-09-19T04:00:41;98686.66;;;17.72;52.68
64189;BME280;50493;50.970;10.082;2023-09-19T04:03:07;98685.50;;;17.91;52.95
64189;BME280;50493;50.970;10.082;2023-09-19T04:05:33;98683.06;;;17.73;54.21
64189;BME280;50493;50.970;10.082;2023-09-19T04:07:59;98683.06;;;17.73;53.98
64189;BME280;50493;50.970;10.082;2023-09-19T04:10:24;98676.59;;;17.92;53.43
64189;BME280;50493;50.970;10.082;2023-09-19T04:12:53;98685.75;;;18.00;53.17
64189;BME280;50493;50.970;10.082;2023-09-19T04:15:18;98680.78;;;17.81;53.19
64189;BME280;50493;50.970;10.082;2023-09-19T04:17:45;98688.69;;;17.96;52.71
64189;BME280;50493;50.970;10.082;2023-09-19T04:20:11;98693.78;;;17.99;52.99
64189;BME280;50493;50.970;10.082;2023-09-19T04:22:37;98700.84;;;17.98;52.85
64189;BME280;50493;50.970;10.082;2023-09-19T04:25:03;98709.66;;;17.99;52.95
64189;BME280;50493;50.970;10.082;2023-09-19T04:27:28;98701.94;;;17.81;53.64
64189;BME280;50493;50.970;10.082;2023-09-19T04:29:54;98710.44;;;17.86;53.01
64189;BME280;50493;50.970;10.082;2023-09-19T04:32:24;98709.31;;;17.76;53.23
64189;BME280;50493;50.970;10.082;2023-09-19T04:34:50;98715.69;;;17.58;53.56
64189;BME280;50493;50.970;10.082;2023-09-19T04:37:16;98713.63;;;17.63;53.66
64189;BME280;50493;50.970;10.082;2023-09-19T04:39:41;98719.88;;;17.76;53.39
64189;BME280;50493;50.970;10.082;2023-09-19T04:42:06;98714.59;;;17.76;53.22
64189;BME280;50493;50.970;10.082;2023-09-19T04:44:32;98722.66;;;17.44;53.84
64189;BME280;50493;50.970;10.082;2023-09-19T04:46:57;98726.41;;;17.71;53.40
64189;BME280;50493;50.970;10.082;2023-09-19T04:49:22;98734.91;;;17.76;52.94
64189;BME280;50493;50.970;10.082;2023-09-19T04:51:49;98734.56;;;17.66;53.38
64189;BME280;50493;50.970;10.082;2023-09-19T04:54:15;98734.50;;;17.82;52.75
64189;BME280;50493;50.970;10.082;2023-09-19T04:56:41;98737.25;;;17.80;52.85
64189;BME280;50493;50.970;10.082;2023-09-19T04:59:06;98736.25;;;17.67;53.01
64189;BME280;50493;50.970;10.082;2023-09-19T05:01:32;98727.13;;;17.58;54.84
64189;BME280;50493;50.970;10.082;2023-09-19T05:03:57;98735.69;;;17.62;53.32
64189;BME280;50493;50.970;10.082;2023-09-19T05:06:23;98733.81;;;17.49;53.47
64189;BME280;50493;50.970;10.082;2023-09-19T05:08:50;98731.38;;;17.90;52.79
64189;BME280;50493;50.970;10.082;2023-09-19T05:11:17;98741.59;;;17.81;52.28
64189;BME280;50493;50.970;10.082;2023-09-19T05:13:43;98741.91;;;17.32;53.70
64189;BME280;50493;50.970;10.082;2023-09-19T05:16:09;98743.09;;;17.71;54.64
64189;BME280;50493;50.970;10.082;2023-09-19T05:18:35;98738.28;;;17.78;53.22
64189;BME280;50493;50.970;10.082;2023-09-19T05:21:01;98738.94;;;17.81;51.92
64189;BME280;50493;50.970;10.082;2023-09-19T05:23:27;98735.63;;;17.92;51.78
64189;BME280;50493;50.970;10.082;2023-09-19T05:25:55;98739.31;;;17.90;51.50
64189;BME280;50493;50.970;10.082;2023-09-19T05:28:22;98749.25;;;17.72;52.43
64189;BME280;50493;50.970;10.082;2023-09-19T05:30:47;98744.59;;;17.75;52.25
64189;BME280;50493;50.970;10.082;2023-09-19T05:33:14;98745.13;;;18.09;53.38
64189;BME280;50493;50.970;10.082;2023-09-19T05:35:39;98741.97;;;17.75;52.10
64189;BME280;50493;50.970;10.082;2023-09-19T05:38:07;98735.22;;;17.98;53.07
64189;BME280;50493;50.970;10.082;2023-09-19T05:40:38;98744.97;;;18.12;52.30
64189;BME280;50493;50.970;10.082;2023-09-19T05:43:05;98744.50;;;17.91;52.92
64189;BME280;50493;50.970;10.082;2023-09-19T05:45:31;98739.69;;;17.98;53.90
64189;BME280;50493;50.970;10.082;2023-09-19T05:48:07;98750.72;;;18.05;51.68
64189;BME280;50493;50.970;10.082;2023-09-19T05:50:33;98746.78;;;17.83;51.90
64189;BME280;50493;50.970;10.082;2023-09-19T05:52:59;98758.94;;;17.71;52.36
64189;BME280;50493;50.970;10.082;2023-09-19T05:55:24;98755.00;;;17.33;53.49
64189;BME280;50493;50.970;10.082;2023-09-19T05:57:50;98747.94;;;17.48;53.02
64189;BME280;50493;50.970;10.082;2023-09-19T06:00:18;98760.88;;;17.24;53.62
64189;BME280;50493;50.970;10.082;2023-09-19T06:02:44;98758.13;;;17.40;53.10
64189;BME280;50493;50.970;10.082;2023-09-19T06:05:10;98758.50;;;17.34;56.08
64189;BME280;50493;50.970;10.082;2023-09-19T06:07:35;98764.13;;;17.73;52.34
64189;BME280;50493;50.970;10.082;2023-09-19T06:10:02;98772.25;;;17.25;53.26
64189;BME280;50493;50.970;10.082;2023-09-19T06:12:30;98770.56;;;17.24;53.11
64189;BME280;50493;50.970;10.082;2023-09-19T06:14:58;98769.72;;;17.23;55.07
64189;BME280;50493;50.970;10.082;2023-09-19T06:17:25;98776.50;;;16.97;53.97
64189;BME280;50493;50.970;10.082;2023-09-19T06:19:52;98781.94;;;17.10;53.62
64189;BME280;50493;50.970;10.082;2023-09-19T06:22:18;98779.97;;;17.13;53.67
64189;BME280;50493;50.970;10.082;2023-09-19T06:24:44;98783.72;;;17.09;53.91
64189;BME280;50493;50.970;10.082;2023-09-19T06:27:09;98784.88;;;17.19;52.53
64189;BME280;50493;50.970;10.082;2023-09-19T06:29:35;98793.81;;;17.02;52.85
64189;BME280;50493;50.970;10.082;2023-09-19T06:32:04;98791.41;;;16.98;53.48
64189;BME280;50493;50.970;10.082;2023-09-19T06:34:33;98799.09;;;16.55;54.30
64189;BME280;50493;50.970;10.082;2023-09-19T06:36:59;98808.44;;;16.44;55.00
64189;BME280;50493;50.970;10.082;2023-09-19T06:39:24;98812.03;;;16.43;54.42
64189;BME280;50493;50.970;10.082;2023-09-19T06:41:51;98836.97;;;16.69;53.66
64189;BME280;50493;50.970;10.082;2023-09-19T06:44:18;98831.63;;;16.39;53.56
64189;BME280;50493;50.970;10.082;2023-09-19T06:46:46;98840.78;;;16.32;55.10
64189;BME280;50493;50.970;10.082;2023-09-19T06:49:14;98849.56;;;15.99;53.88
64189;BME280;50493;50.970;10.082;2023-09-19T06:51:41;98861.00;;;16.15;55.26
64189;BME280;50493;50.970;10.082;2023-09-19T06:54:08;98864.09;;;16.40;53.72
64189;BME280;50493;50.970;10.082;2023-09-19T06:56:33;98864.81;;;16.43;54.10
64189;BME280;50493;50.970;10.082;2023-09-19T06:58:59;98869.41;;;16.88;52.35
64189;BME280;50493;50.970;10.082;2023-09-19T07:01:24;98873.75;;;16.57;54.08
64189;BME280;50493;50.970;10.082;2023-09-19T07:03:50;98871.63;;;16.63;52.13
64189;BME280;50493;50.970;10.082;2023-09-19T07:06:15;98879.28;;;17.16;51.44
64189;BME280;50493;50.970;10.082;2023-09-19T07:08:42;98882.88;;;16.99;52.05
64189;BME280;50493;50.970;10.082;2023-09-19T07:11:08;98888.00;;;16.86;53.24
64189;BME280;50493;50.970;10.082;2023-09-19T07:13:33;98883.22;;;16.93;52.63
64189;BME280;50493;50.970;10.082;2023-09-19T07:15:59;98890.22;;;16.94;52.00
64189;BME280;50493;50.970;10.082;2023-09-19T07:18:24;98897.81;;;17.46;50.00
64189;BME280;50493;50.970;10.082;2023-09-19T07:20:50;98903.81;;;17.34;50.38
64189;BME280;50493;50.970;10.082;2023-09-19T07:23:16;98893.47;;;17.45;49.46
64189;BME280;50493;50.970;10.082;2023-09-19T07:25:45;98906.22;;;17.07;50.35
64189;BME280;50493;50.970;10.082;2023-09-19T07:28:11;98903.63;;;16.73;51.72
64189;BME280;50493;50.970;10.082;2023-09-19T07:30:37;98904.00;;;16.99;51.69
64189;BME280;50493;50.970;10.082;2023-09-19T07:33:03;98908.63;;;17.42;50.69
64189;BME280;50493;50.970;10.082;2023-09-19T07:35:29;98911.59;;;17.51;50.49
64189;BME280;50493;50.970;10.082;2023-09-19T07:37:54;98911.00;;;18.07;49.35
64189;BME280;50493;50.970;10.082;2023-09-19T07:40:21;98907.75;;;17.88;50.30
64189;BME280;50493;50.970;10.082;2023-09-19T07:42:51;98914.06;;;18.30;48.50
64189;BME280;50493;50.970;10.082;2023-09-19T07:45:16;98914.06;;;18.59;47.27
64189;BME280;50493;50.970;10.082;2023-09-19T07:47:45;98928.72;;;18.64;44.59
64189;BME280;50493;50.970;10.082;2023-09-19T07:50:11;98931.25;;;18.51;48.27
64189;BME280;50493;50.970;10.082;2023-09-19T07:52:36;98938.09;;;18.56;48.02
64189;BME280;50493;50.970;10.082;2023-09-19T07:55:04;98928.78;;;18.48;44.49
64189;BME280;50493;50.970;10.082;2023-09-19T07:57:34;98931.44;;;18.48;46.85
64189;BME280;50493;50.970;10.082;2023-09-19T08:00:01;98930.16;;;18.56;48.80
64189;BME280;50493;50.970;10.082;2023-09-19T08:02:26;98939.03;;;18.69;46.72
64189;BME280;50493;50.970;10.082;2023-09-19T08:04:53;98935.44;;;18.56;48.92
64189;BME280;50493;50.970;10.082;2023-09-19T08:07:19;98929.91;;;18.87;46.01
64189;BME280;50493;50.970;10.082;2023-09-19T08:09:44;98930.50;;;18.78;47.39
64189;BME280;50493;50.970;10.082;2023-09-19T08:12:11;98932.41;;;18.62;48.95
64189;BME280;50493;50.970;10.082;2023-09-19T08:14:37;98937.75;;;18.46;49.42
64189;BME280;50493;50.970;10.082;2023-09-19T08:17:04;98929.06;;;18.87;47.24
64189;BME280;50493;50.970;10.082;2023-09-19T08:19:31;98943.19;;;18.73;48.52
64189;BME280;50493;50.970;10.082;2023-09-19T08:21:57;98938.75;;;18.59;48.61
64189;BME280;50493;50.970;10.082;2023-09-19T08:24:29;98947.78;;;18.98;45.42
64189;BME280;50493;50.970;10.082;2023-09-19T08:26:55;98935.78;;;19.20;42.86
64189;BME280;50493;50.970;10.082;2023-09-19T08:29:21;98942.41;;;18.85;48.10
64189;BME280;50493;50.970;10.082;2023-09-19T08:31:46;98947.06;;;19.24;43.04
64189;BME280;50493;50.970;10.082;2023-09-19T08:34:15;98943.63;;;19.36;46.33
64189;BME280;50493;50.970;10.082;2023-09-19T08:36:41;98947.25;;;19.20;47.36
64189;BME280;50493;50.970;10.082;2023-09-19T08:39:08;98941.75;;;19.24;47.13
64189;BME280;50493;50.970;10.082;2023-09-19T08:41:34;98939.34;;;19.06;47.83
64189;BME280;50493;50.970;10.082;2023-09-19T08:44:00;98943.97;;;19.02;47.81
64189;BME280;50493;50.970;10.082;2023-09-19T08:46:30;98955.81;;;18.97;44.65
64189;BME280;50493;50.970;10.082;2023-09-19T08:49:03;98945.53;;;18.78;44.03
64189;BME280;50493;50.970;10.082;2023-09-19T08:51:39;98948.81;;;18.96;44.42
64189;BME280;50493;50.970;10.082;2023-09-19T08:54:07;98951.81;;;19.04;43.70
64189;BME280;50493;50.970;10.082;2023-09-19T08:56:33;98959.97;;;18.86;47.58
64189;BME280;50493;50.970;10.082;2023-09-19T08:59:00;98961.28;;;19.08;44.66
64189;BME280;50493;50.970;10.082;2023-09-19T09:01:27;98966.03;;;19.03;45.41
64189;BME280;50493;50.970;10.082;2023-09-19T09:03:54;98954.50;;;19.86;44.50
64189;BME280;50493;50.970;10.082;2023-09-19T09:06:22;98967.78;;;19.59;45.73
64189;BME280;50493;50.970;10.082;2023-09-19T09:08:50;98976.31;;;19.77;45.97
64189;BME280;50493;50.970;10.082;2023-09-19T09:11:15;98960.47;;;20.02;42.99
64189;BME280;50493;50.970;10.082;2023-09-19T09:13:43;98962.69;;;19.56;46.21
64189;BME280;50493;50.970;10.082;2023-09-19T09:16:10;98967.56;;;19.49;42.55
64189;BME280;50493;50.970;10.082;2023-09-19T09:18:35;98960.03;;;19.56;46.54
64189;BME280;50493;50.970;10.082;2023-09-19T09:21:01;98954.06;;;19.79;45.99
64189;BME280;50493;50.970;10.082;2023-09-19T09:23:27;98962.63;;;19.43;47.25
64189;BME280;50493;50.970;10.082;2023-09-19T09:25:56;98957.41;;;19.56;46.62
64189;BME280;50493;50.970;10.082;2023-09-19T09:28:23;98948.34;;;19.85;45.22
64189;BME280;50493;50.970;10.082;2023-09-19T09:30:49;98952.16;;;19.81;41.11
64189;BME280;50493;50.970;10.082;2023-09-19T09:33:15;98950.47;;;19.80;45.39
64189;BME280;50493;50.970;10.082;2023-09-19T09:35:48;98959.03;;;19.71;46.17
64189;BME280;50493;50.970;10.082;2023-09-19T09:38:17;98946.84;;;19.81;46.16
64189;BME280;50493;50.970;10.082;2023-09-19T09:40:48;98937.13;;;20.08;43.99
64189;BME280;50493;50.970;10.082;2023-09-19T09:43:32;98936.91;;;20.62;43.85
64189;BME280;50493;50.970;10.082;2023-09-19T09:46:12;98938.72;;;20.62;40.00
64189;BME280;50493;50.970;10.082;2023-09-19T09:48:47;98934.03;;;20.78;43.46
64189;BME280;50493;50.970;10.082;2023-09-19T09:51:32;98934.16;;;20.90;40.75
64189;BME280;50493;50.970;10.082;2023-09-19T09:54:10;98947.13;;;20.30;45.13
64189;BME280;50493;50.970;10.082;2023-09-19T09:56:39;98946.03;;;20.97;38.47
64189;BME280;50493;50.970;10.082;2023-09-19T09:59:18;98935.50;;;20.82;41.62
64189;BME280;50493;50.970;10.082;2023-09-19T10:01:47;98934.56;;;20.70;41.64
64189;BME280;50493;50.970;10.082;2023-09-19T10:04:27;98939.88;;;20.70;41.75
64189;BME280;50493;50.970;10.082;2023-09-19T10:06:55;98939.84;;;20.83;38.81
64189;BME280;50493;50.970;10.082;2023-09-19T10:09:20;98932.00;;;20.69;41.65
64189;BME280;50493;50.970;10.082;2023-09-19T10:12:02;98924.13;;;20.93;40.85
64189;BME280;50493;50.970;10.082;2023-09-19T10:14:30;98932.91;;;20.31;45.76
64189;BME280;50493;50.970;10.082;2023-09-19T10:16:59;98929.69;;;20.51;45.11
64189;BME280;50493;50.970;10.082;2023-09-19T10:19:30;98935.50;;;20.82;39.95
64189;BME280;50493;50.970;10.082;2023-09-19T10:21:59;98936.97;;;20.86;40.61
64189;BME280;50493;50.970;10.082;2023-09-19T10:24:26;98939.63;;;20.86;43.17
64189;BME280;50493;50.970;10.082;2023-09-19T10:26:53;98939.03;;;20.70;44.45
64189;BME280;50493;50.970;10.082;2023-09-19T10:29:21;98935.28;;;20.98;44.36
64189;BME280;50493;50.970;10.082;2023-09-19T10:31:52;98940.44;;;21.13;43.89
64189;BME280;50493;50.970;10.082;2023-09-19T10:34:19;98937.84;;;21.24;43.80
64189;BME280;50493;50.970;10.082;2023-09-19T10:36:46;98938.78;;;20.99;44.36
64189;BME280;50493;50.970;10.082;2023-09-19T10:39:14;98945.09;;;21.22;41.53
64189;BME280;50493;50.970;10.082;2023-09-19T10:41:50;98942.81;;;21.29;39.64
64189;BME280;50493;50.970;10.082;2023-09-19T10:44:21;98944.78;;;20.90;44.82
64189;BME280;50493;50.970;10.082;2023-09-19T10:46:47;98951.00;;;21.01;43.71
64189;BME280;50493;50.970;10.082;2023-09-19T10:49:14;98950.47;;;20.83;44.93
64189;BME280;50493;50.970;10.082;2023-09-19T10:51:42;98943.56;;;21.31;43.47
64189;BME280;50493;50.970;10.082;2023-09-19T10:54:11;98947.97;;;21.19;44.12
64189;BME280;50493;50.970;10.082;2023-09-19T10:56:42;98945.97;;;21.34;42.77
64189;BME280;50493;50.970;10.082;2023-09-19T10:59:11;98959.19;;;20.98;43.94
64189;BME280;50493;50.970;10.082;2023-09-19T11:01:45;98956.63;;;20.84;44.41
64189;BME280;50493;50.970;10.082;2023-09-19T11:04:24;98959.63;;;20.92;43.77
64189;BME280;50493;50.970;10.082;2023-09-19T11:07:02;98946.84;;;21.59;40.34
64189;BME280;50493;50.970;10.082;2023-09-19T11:09:45;98946.75;;;21.36;43.36
64189;BME280;50493;50.970;10.082;2023-09-19T11:12:11;98946.91;;;21.46;43.11
64189;BME280;50493;50.970;10.082;2023-09-19T11:14:41;98956.69;;;21.45;40.49
64189;BME280;50493;50.970;10.082;2023-09-19T11:17:31;98957.22;;;21.13;43.47
64189;BME280;50493;50.970;10.082;2023-09-19T11:20:31;98952.72;;;21.27;41.86
64189;BME280;50493;50.970;10.082;2023-09-19T11:23:22;98951.25;;;21.23;41.32
64189;BME280;50493;50.970;10.082;2023-09-19T11:25:50;98956.22;;;20.77;44.54
64189;BME280;50493;50.970;10.082;2023-09-19T11:28:34;98955.19;;;20.67;42.43
64189;BME280;50493;50.970;10.082;2023-09-19T11:34:47;98945.81;;;20.74;41.94
64189;BME280;50493;50.970;10.082;2023-09-19T11:40:34;98940.94;;;21.18;42.62
64189;BME280;50493;50.970;10.082;2023-09-19T11:43:30;98938.00;;;21.34;42.15
64189;BME280;50493;50.970;10.082;2023-09-19T11:46:08;98937.28;;;21.56;39.54
64189;BME280;50493;50.970;10.082;2023-09-19T11:48:40;98930.97;;;21.81;41.55
64189;BME280;50493;50.970;10.082;2023-09-19T11:51:11;98928.19;;;22.30;34.55
64189;BME280;50493;50.970;10.082;2023-09-19T11:53:45;98936.88;;;22.20;40.78
64189;BME280;50493;50.970;10.082;2023-09-19T11:56:15;98923.06;;;21.93;37.44
64189;BME280;50493;50.970;10.082;2023-09-19T11:58:43;98932.75;;;22.05;41.26
64189;BME280;50493;50.970;10.082;2023-09-19T12:01:09;98931.75;;;21.95;36.08
64189;BME280;50493;50.970;10.082;2023-09-19T12:03:46;98936.56;;;21.89;42.03
64189;BME280;50493;50.970;10.082;2023-09-19T12:06:15;98932.03;;;22.14;39.50
64189;BME280;50493;50.970;10.082;2023-09-19T12:08:41;98926.16;;;21.86;42.30
64189;BME280;50493;50.970;10.082;2023-09-19T12:11:12;98929.13;;;22.29;41.43
64189;BME280;50493;50.970;10.082;2023-09-19T12:13:43;98934.22;;;22.20;41.95
64189;BME280;50493;50.970;10.082;2023-09-19T12:16:13;98941.53;;;22.52;37.11
64189;BME280;50493;50.970;10.082;2023-09-19T12:18:40;98933.56;;;22.41;40.86
64189;BME280;50493;50.970;10.082;2023-09-19T12:21:07;98943.34;;;22.41;40.54
64189;BME280;50493;50.970;10.082;2023-09-19T12:23:37;98936.38;;;22.15;41.02
64189;BME280;50493;50.970;10.082;2023-09-19T12:26:06;98942.06;;;22.11;42.02
64189;BME280;50493;50.970;10.082;2023-09-19T12:28:42;98943.16;;;22.08;42.07
64189;BME280;50493;50.970;10.082;2023-09-19T12:31:09;98939.53;;;22.20;42.08
64189;BME280;50493;50.970;10.082;2023-09-19T12:33:34;98949.72;;;22.27;41.74
64189;BME280;50493;50.970;10.082;2023-09-19T12:36:00;98937.88;;;22.31;36.59
64189;BME280;50493;50.970;10.082;2023-09-19T12:38:28;98945.88;;;22.42;40.48
64189;BME280;50493;50.970;10.082;2023-09-19T12:40:54;98941.31;;;22.67;40.89
64189;BME280;50493;50.970;10.082;2023-09-19T12:43:21;98935.38;;;22.52;33.35
64189;BME280;50493;50.970;10.082;2023-09-19T12:45:48;98933.53;;;22.64;33.98
64189;BME280;50493;50.970;10.082;2023-09-19T12:48:21;98936.88;;;22.20;40.29
64189;BME280;50493;50.970;10.082;2023-09-19T12:51:00;98921.91;;;22.19;40.66
64189;BME280;50493;50.970;10.082;2023-09-19T12:53:27;98915.63;;;22.43;37.53
64189;BME280;50493;50.970;10.082;2023-09-19T12:55:58;98919.41;;;22.52;37.64
64189;BME280;50493;50.970;10.082;2023-09-19T12:58:24;98906.41;;;22.59;38.20
64189;BME280;50493;50.970;10.082;2023-09-19T13:00:51;98920.69;;;22.80;40.19
64189;BME280;50493;50.970;10.082;2023-09-19T13:03:24;98917.22;;;22.46;40.86
64189;BME280;50493;50.970;10.082;2023-09-19T13:05:51;98916.56;;;22.76;39.00